Terminal Aerodrome Forecast
Issued by NWS

Home | Current Version | Previous Version | Text Only | Print | Product List | Glossary On
Versions: 1 2 3 4 5 6 7 8 9 10 11 12 13 14 15 16 17 18
000
FTUS41 KGYX 231740
TAFRKD
TAF
KRKD 231740Z 2318/2418 20006KT P6SM SCT010
     FM232200 18005KT P6SM BKN007
     FM240100 18004KT 2SM BR OVC002
     FM240300 16006KT 1/4SM FG OVC001
     FM241400 17010G18KT 2SM BR OVC004
      AMD LTD TO CLD VIS AND WIND=

USA.gov is the U.S. government's official web portal to all federal, state and local government web resources and services.